createdAt,value
2017-03-29T00:00:04.730Z,0
2017-03-29T00:00:45.247Z,0
2017-03-29T00:01:25.773Z,0
2017-03-29T00:02:06.304Z,0
2017-03-29T00:02:46.836Z,0
2017-03-29T00:03:27.342Z,0
2017-03-29T00:04:07.864Z,0
2017-03-29T00:04:48.374Z,0
2017-03-29T00:05:28.896Z,0
2017-03-29T00:06:09.411Z,0
2017-03-29T00:06:49.928Z,0
2017-03-29T00:07:30.433Z,0
2017-03-29T00:08:10.943Z,0
2017-03-29T00:08:51.474Z,0
2017-03-29T00:09:31.989Z,0
2017-03-29T00:10:12.492Z,0
2017-03-29T00:10:53.027Z,0
2017-03-29T00:11:33.543Z,0
2017-03-29T00:12:14.058Z,0
2017-03-29T00:12:54.584Z,0
2017-03-29T00:13:35.112Z,0
2017-03-29T00:14:15.626Z,0
2017-03-29T00:14:56.168Z,0
2017-03-29T00:15:36.684Z,0
2017-03-29T00:16:17.174Z,0
2017-03-29T00:16:57.699Z,0
2017-03-29T00:17:38.189Z,0
2017-03-29T00:18:18.704Z,0
2017-03-29T00:18:59.244Z,0
2017-03-29T00:19:39.746Z,0
2017-03-29T00:20:20.270Z,0
2017-03-29T00:21:00.783Z,0
2017-03-29T00:21:41.271Z,0
2017-03-29T00:22:21.790Z,0
2017-03-29T00:23:02.301Z,0
2017-03-29T00:23:42.825Z,0
2017-03-29T00:24:23.342Z,0
2017-03-29T00:25:03.871Z,0
2017-03-29T00:25:44.375Z,0
2017-03-29T00:26:24.894Z,0
2017-03-29T00:27:05.425Z,0
2017-03-29T00:27:45.927Z,0
2017-03-29T00:28:26.451Z,0
2017-03-29T00:29:06.981Z,0
2017-03-29T00:29:47.482Z,0
2017-03-29T00:30:28.017Z,0
2017-03-29T00:31:08.544Z,0
2017-03-29T00:31:49.055Z,0
2017-03-29T00:32:29.578Z,0
2017-03-29T00:33:10.105Z,0
2017-03-29T00:33:50.625Z,0
2017-03-29T00:34:31.150Z,0
2017-03-29T00:35:11.674Z,0
2017-03-29T00:35:52.205Z,0
2017-03-29T00:36:32.714Z,0
2017-03-29T00:37:13.216Z,0
2017-03-29T00:37:53.722Z,0
2017-03-29T00:38:34.231Z,0
2017-03-29T00:39:14.760Z,0
2017-03-29T00:39:55.272Z,0
2017-03-29T00:40:35.798Z,0
2017-03-29T00:41:16.323Z,0
2017-03-29T00:41:56.844Z,0
2017-03-29T00:42:37.374Z,0
2017-03-29T00:43:17.870Z,0
2017-03-29T00:43:58.409Z,0
2017-03-29T00:44:38.940Z,0
2017-03-29T00:45:19.447Z,0
2017-03-29T00:45:59.965Z,0
2017-03-29T00:46:40.493Z,0
2017-03-29T00:47:21.019Z,0
2017-03-29T00:48:01.496Z,0
2017-03-29T00:48:42.014Z,0
2017-03-29T00:49:22.518Z,0
2017-03-29T00:50:03.057Z,0
2017-03-29T00:50:43.589Z,0
2017-03-29T00:51:24.074Z,0
2017-03-29T00:52:04.576Z,0
2017-03-29T00:52:45.095Z,0
2017-03-29T00:53:25.592Z,0
2017-03-29T00:54:06.085Z,0
2017-03-29T00:54:46.614Z,0
2017-03-29T00:55:27.101Z,0
2017-03-29T00:56:07.626Z,0
2017-03-29T00:56:48.146Z,0
2017-03-29T00:57:28.677Z,0
2017-03-29T00:58:09.177Z,0
2017-03-29T00:58:49.709Z,0
2017-03-29T00:59:30.230Z,0
2017-03-29T01:00:10.756Z,0
2017-03-29T01:00:51.258Z,0
2017-03-29T01:01:31.786Z,0
2017-03-29T01:02:12.275Z,0
2017-03-29T01:02:52.801Z,0
2017-03-29T01:03:33.330Z,0
2017-03-29T01:04:13.812Z,0
2017-03-29T01:04:54.321Z,0
2017-03-29T01:05:34.827Z,0
2017-03-29T01:06:15.364Z,0
2017-03-29T01:06:55.879Z,0
2017-03-29T01:07:36.425Z,0
2017-03-29T01:08:16.941Z,0
2017-03-29T01:08:57.452Z,0
2017-03-29T01:09:37.967Z,0
2017-03-29T01:10:18.479Z,0
2017-03-29T01:10:59.057Z,0
2017-03-29T01:11:39.576Z,0
2017-03-29T01:12:20.078Z,0
2017-03-29T01:13:00.578Z,0
2017-03-29T01:13:41.097Z,0
2017-03-29T01:14:21.597Z,0
2017-03-29T01:15:02.130Z,0
2017-03-29T01:15:42.652Z,0
2017-03-29T01:16:23.182Z,0
2017-03-29T01:17:03.685Z,0
2017-03-29T01:17:44.185Z,0
2017-03-29T01:18:24.696Z,0
2017-03-29T01:19:05.229Z,0
2017-03-29T01:19:45.753Z,0
2017-03-29T01:20:26.282Z,0
2017-03-29T01:21:06.800Z,0
2017-03-29T01:21:47.313Z,0
2017-03-29T01:22:27.831Z,0
2017-03-29T01:23:08.342Z,0
2017-03-29T01:23:48.867Z,0
2017-03-29T01:24:29.386Z,0
2017-03-29T01:25:09.893Z,0
2017-03-29T01:25:50.409Z,0
2017-03-29T01:26:30.924Z,0
2017-03-29T01:27:11.444Z,0
2017-03-29T01:27:51.956Z,0
2017-03-29T01:28:32.464Z,0
2017-03-29T01:29:12.980Z,0
2017-03-29T01:29:53.509Z,0
2017-03-29T01:30:35.758Z,0
2017-03-29T01:31:16.253Z,0
2017-03-29T01:31:56.777Z,0
2017-03-29T01:32:37.285Z,0
2017-03-29T01:33:17.806Z,0
2017-03-29T01:33:58.315Z,0
2017-03-29T01:34:38.845Z,0
2017-03-29T01:35:19.370Z,0
2017-03-29T01:35:59.882Z,0
2017-03-29T01:36:40.392Z,0
2017-03-29T01:37:20.912Z,0
2017-03-29T01:38:01.427Z,0
2017-03-29T01:38:41.948Z,0
2017-03-29T01:39:22.491Z,0
2017-03-29T01:40:02.975Z,0
2017-03-29T01:40:43.499Z,0
2017-03-29T01:41:24.025Z,0
2017-03-29T01:42:04.550Z,0
2017-03-29T01:42:45.064Z,0
2017-03-29T01:43:25.572Z,0
2017-03-29T01:44:06.095Z,0
2017-03-29T01:44:46.627Z,0
2017-03-29T01:45:27.131Z,0
2017-03-29T01:46:07.651Z,0
2017-03-29T01:46:48.168Z,0
2017-03-29T01:47:28.675Z,0
2017-03-29T01:48:09.195Z,0
2017-03-29T01:48:49.738Z,0
2017-03-29T01:49:30.230Z,0
2017-03-29T01:50:10.732Z,0
2017-03-29T01:50:51.264Z,0
2017-03-29T01:51:31.769Z,0
2017-03-29T01:52:12.294Z,0
2017-03-29T01:52:52.811Z,0
2017-03-29T01:53:33.324Z,0
2017-03-29T01:54:13.849Z,0
2017-03-29T01:54:54.351Z,0
2017-03-29T01:55:34.882Z,0
2017-03-29T01:56:15.389Z,0
2017-03-29T01:56:55.923Z,0
2017-03-29T01:57:36.435Z,0
2017-03-29T01:58:16.964Z,0
2017-03-29T01:58:57.482Z,0
2017-03-29T01:59:37.995Z,0
2017-03-29T02:00:18.505Z,0
2017-03-29T02:00:59.022Z,0
2017-03-29T02:01:39.514Z,0
2017-03-29T02:02:20.031Z,0
2017-03-29T02:03:00.555Z,0
2017-03-29T02:03:41.073Z,0
2017-03-29T02:04:21.588Z,0
2017-03-29T02:05:02.098Z,0
2017-03-29T02:05:42.619Z,0
2017-03-29T02:06:23.134Z,0
2017-03-29T02:07:03.651Z,0
2017-03-29T02:07:44.146Z,0
2017-03-29T02:08:24.679Z,0
2017-03-29T02:09:05.200Z,0
2017-03-29T02:09:45.719Z,0
2017-03-29T02:10:26.213Z,0
2017-03-29T02:11:06.730Z,0
2017-03-29T02:11:47.247Z,0
2017-03-29T02:12:27.772Z,0
2017-03-29T02:13:08.292Z,0
2017-03-29T02:13:48.820Z,0
2017-03-29T02:14:29.348Z,0
2017-03-29T02:15:09.838Z,0
2017-03-29T02:15:50.361Z,0
2017-03-29T02:16:30.873Z,0
2017-03-29T02:17:11.385Z,0
2017-03-29T02:17:51.917Z,0
2017-03-29T02:18:32.429Z,0
2017-03-29T02:19:12.951Z,0
2017-03-29T02:19:53.534Z,0
2017-03-29T02:20:34.061Z,0
2017-03-29T02:21:14.572Z,0
2017-03-29T02:21:55.096Z,0
2017-03-29T02:22:35.607Z,0
2017-03-29T02:23:16.117Z,0
2017-03-29T02:23:56.639Z,0
2017-03-29T02:24:37.169Z,0
2017-03-29T02:25:17.688Z,0
2017-03-29T02:25:58.202Z,0
2017-03-29T02:26:38.719Z,0
2017-03-29T02:27:19.233Z,0
2017-03-29T02:27:59.742Z,0
2017-03-29T02:28:40.258Z,0
2017-03-29T02:29:20.784Z,0
2017-03-29T02:30:01.293Z,0
2017-03-29T02:30:41.790Z,0
2017-03-29T02:31:22.323Z,0
2017-03-29T02:32:02.820Z,0
2017-03-29T02:32:43.324Z,0
2017-03-29T02:33:23.832Z,0
2017-03-29T02:34:04.381Z,0
2017-03-29T02:34:44.899Z,0
2017-03-29T02:35:25.425Z,0
2017-03-29T02:36:05.940Z,0
2017-03-29T02:36:46.461Z,0
2017-03-29T02:37:26.975Z,0
2017-03-29T02:38:07.477Z,0
2017-03-29T02:38:47.995Z,0
2017-03-29T02:39:28.502Z,0
2017-03-29T02:40:09.010Z,0
2017-03-29T02:40:49.526Z,0
2017-03-29T02:41:30.032Z,0
2017-03-29T02:42:10.543Z,0
2017-03-29T02:42:51.061Z,0
2017-03-29T02:43:31.594Z,0
2017-03-29T02:44:12.109Z,0
2017-03-29T02:44:52.635Z,0
2017-03-29T02:45:33.143Z,0
2017-03-29T02:46:13.654Z,0
2017-03-29T02:46:54.181Z,0
2017-03-29T02:47:34.685Z,0
2017-03-29T02:48:15.239Z,0
2017-03-29T02:48:55.757Z,0
2017-03-29T02:49:36.281Z,0
2017-03-29T02:50:16.879Z,0
2017-03-29T02:50:57.384Z,0
2017-03-29T02:51:37.907Z,0
2017-03-29T02:52:18.402Z,0
2017-03-29T02:52:58.922Z,0
2017-03-29T02:53:39.441Z,0
2017-03-29T02:54:19.958Z,0
2017-03-29T02:55:00.487Z,0
2017-03-29T02:55:41.013Z,0
2017-03-29T02:56:21.526Z,0
2017-03-29T02:57:02.041Z,0
2017-03-29T02:57:42.550Z,0
2017-03-29T02:58:23.084Z,0
2017-03-29T02:59:03.587Z,0
2017-03-29T02:59:44.080Z,0
2017-03-29T03:00:24.598Z,0
2017-03-29T03:01:05.109Z,0
2017-03-29T03:01:45.620Z,0
2017-03-29T03:02:26.142Z,0
2017-03-29T03:03:06.675Z,0
2017-03-29T03:03:47.192Z,0
2017-03-29T03:04:27.700Z,0
2017-03-29T03:05:08.223Z,0
2017-03-29T03:05:48.746Z,0
2017-03-29T03:06:29.277Z,0
2017-03-29T03:07:09.781Z,0
2017-03-29T03:07:50.290Z,0
2017-03-29T03:08:30.793Z,0
2017-03-29T03:09:11.328Z,0
2017-03-29T03:09:51.860Z,0
2017-03-29T03:10:32.373Z,0
2017-03-29T03:11:12.894Z,0
2017-03-29T03:11:53.402Z,0
2017-03-29T03:12:33.921Z,0
2017-03-29T03:13:14.419Z,0
2017-03-29T03:13:54.928Z,0
2017-03-29T03:14:35.424Z,0
2017-03-29T03:15:15.893Z,0
2017-03-29T03:15:56.400Z,0
2017-03-29T03:16:36.974Z,0
2017-03-29T03:17:17.453Z,0
2017-03-29T03:17:57.989Z,0
2017-03-29T03:18:38.507Z,0
2017-03-29T03:19:18.985Z,0
2017-03-29T03:19:59.576Z,0
2017-03-29T03:20:40.094Z,0
2017-03-29T03:21:20.932Z,0
2017-03-29T03:22:01.478Z,0
2017-03-29T03:22:42.025Z,0
2017-03-29T03:23:22.537Z,0
2017-03-29T03:24:03.064Z,0
2017-03-29T03:24:43.575Z,0
2017-03-29T03:25:24.139Z,0
2017-03-29T03:26:04.766Z,0
2017-03-29T03:26:45.334Z,0
2017-03-29T03:27:25.979Z,0
2017-03-29T03:28:06.471Z,0
2017-03-29T03:28:46.994Z,0
2017-03-29T03:29:27.530Z,0
2017-03-29T03:30:08.062Z,0
2017-03-29T03:30:48.598Z,0
2017-03-29T03:31:29.145Z,0
2017-03-29T03:32:09.646Z,0
2017-03-29T03:32:50.161Z,0
2017-03-29T03:33:30.728Z,0
2017-03-29T03:34:11.278Z,0
2017-03-29T03:34:51.845Z,0
2017-03-29T03:35:32.399Z,0
2017-03-29T03:36:12.931Z,0
2017-03-29T03:36:53.424Z,0
2017-03-29T03:37:33.957Z,0
2017-03-29T03:38:14.485Z,0
2017-03-29T03:38:55.150Z,0
2017-03-29T03:39:35.662Z,0
2017-03-29T03:40:16.181Z,0
2017-03-29T03:40:56.699Z,0
2017-03-29T03:41:37.204Z,0
2017-03-29T03:42:17.905Z,0
2017-03-29T03:42:58.528Z,0
2017-03-29T03:43:39.072Z,0
2017-03-29T03:44:19.611Z,0
2017-03-29T03:45:00.209Z,0
2017-03-29T03:45:40.739Z,0
2017-03-29T03:46:21.440Z,0
2017-03-29T03:47:02.025Z,0
2017-03-29T03:47:42.593Z,0
2017-03-29T03:48:23.315Z,0
2017-03-29T03:49:03.905Z,0
2017-03-29T03:49:45.080Z,0
2017-03-29T03:50:25.636Z,0
2017-03-29T03:51:06.143Z,0
2017-03-29T03:51:46.698Z,0
2017-03-29T03:52:27.274Z,0
2017-03-29T03:53:07.776Z,0
2017-03-29T03:53:48.305Z,0
2017-03-29T03:54:28.816Z,0
2017-03-29T03:55:09.327Z,0
2017-03-29T03:55:49.841Z,0
2017-03-29T03:56:30.430Z,0
2017-03-29T03:57:10.950Z,0
2017-03-29T03:57:51.470Z,0
2017-03-29T03:58:31.959Z,0
2017-03-29T03:59:12.560Z,0
2017-03-29T03:59:53.155Z,0
2017-03-29T04:00:33.784Z,0
2017-03-29T04:01:14.250Z,0
2017-03-29T04:01:54.828Z,0
2017-03-29T04:02:35.421Z,0
2017-03-29T04:03:15.951Z,0
2017-03-29T04:03:56.637Z,0
2017-03-29T04:04:37.207Z,0
2017-03-29T04:05:17.733Z,0
2017-03-29T04:05:58.368Z,0
2017-03-29T04:06:38.994Z,0
2017-03-29T04:07:19.655Z,0
2017-03-29T04:08:00.333Z,0
2017-03-29T04:08:40.820Z,0
2017-03-29T04:09:21.429Z,0
2017-03-29T04:10:02.031Z,0
2017-03-29T04:10:42.548Z,0
2017-03-29T04:11:23.042Z,0
2017-03-29T04:12:04.420Z,0
2017-03-29T04:12:44.963Z,0
2017-03-29T04:13:25.471Z,0
2017-03-29T04:14:05.974Z,0
2017-03-29T04:14:46.660Z,0
2017-03-29T04:15:27.240Z,0
2017-03-29T04:16:07.741Z,0
2017-03-29T04:16:48.263Z,0
2017-03-29T04:17:28.788Z,0
2017-03-29T04:18:09.316Z,0
2017-03-29T04:18:49.842Z,0
2017-03-29T04:19:30.362Z,0
2017-03-29T04:20:10.882Z,0
2017-03-29T04:20:51.379Z,0
2017-03-29T04:21:31.885Z,0
2017-03-29T04:22:12.391Z,0
2017-03-29T04:22:52.904Z,0
2017-03-29T04:23:33.440Z,0
2017-03-29T04:24:13.944Z,0
2017-03-29T04:24:54.459Z,0
2017-03-29T04:25:34.983Z,0
2017-03-29T04:26:15.520Z,0
2017-03-29T04:26:56.046Z,0
2017-03-29T04:27:36.550Z,0
2017-03-29T04:28:17.079Z,0
2017-03-29T04:28:57.561Z,0
2017-03-29T04:29:38.046Z,0
2017-03-29T04:30:18.554Z,0
2017-03-29T04:30:59.061Z,0
2017-03-29T04:31:39.565Z,0
2017-03-29T04:32:20.080Z,0
2017-03-29T04:33:00.589Z,0
2017-03-29T04:33:41.140Z,0
2017-03-29T04:34:21.656Z,0
2017-03-29T04:35:02.175Z,0
2017-03-29T04:35:42.678Z,0
2017-03-29T04:36:23.219Z,0
2017-03-29T04:37:03.734Z,0
2017-03-29T04:37:44.261Z,0
2017-03-29T04:38:24.773Z,0
2017-03-29T04:39:05.308Z,0
2017-03-29T04:39:45.834Z,0
2017-03-29T04:40:26.360Z,0
2017-03-29T04:41:06.892Z,0
2017-03-29T04:41:47.406Z,0
2017-03-29T04:42:27.921Z,0
2017-03-29T04:43:08.444Z,0
2017-03-29T04:43:48.973Z,0
2017-03-29T04:44:29.487Z,0
2017-03-29T04:45:09.990Z,0
2017-03-29T04:45:50.505Z,0
2017-03-29T04:46:31.040Z,0
2017-03-29T04:47:11.559Z,0
2017-03-29T04:47:52.088Z,0
2017-03-29T04:48:32.603Z,4
2017-03-29T04:49:13.121Z,4
2017-03-29T04:49:53.630Z,0
2017-03-29T04:50:34.139Z,0
2017-03-29T04:51:14.659Z,4
2017-03-29T04:51:55.164Z,4
2017-03-29T04:52:35.687Z,4
2017-03-29T04:53:16.222Z,4
2017-03-29T04:53:56.724Z,4
2017-03-29T04:54:37.237Z,8
2017-03-29T04:55:17.743Z,4
2017-03-29T04:55:58.239Z,8
2017-03-29T04:56:38.747Z,8
2017-03-29T04:57:19.255Z,8
2017-03-29T04:57:59.769Z,12
2017-03-29T04:58:40.288Z,12
2017-03-29T04:59:20.805Z,16
2017-03-29T05:00:01.313Z,16
2017-03-29T05:00:41.835Z,16
2017-03-29T05:01:22.363Z,20
2017-03-29T05:02:02.886Z,20
2017-03-29T05:02:43.409Z,24
2017-03-29T05:03:23.924Z,28
2017-03-29T05:04:04.440Z,32
2017-03-29T05:04:44.994Z,32
2017-03-29T05:05:25.524Z,32
2017-03-29T05:06:06.025Z,36
2017-03-29T05:06:46.547Z,40
2017-03-29T05:07:27.052Z,48
2017-03-29T05:08:07.565Z,52
2017-03-29T05:08:48.094Z,52
2017-03-29T05:09:28.631Z,56
2017-03-29T05:10:09.152Z,60
2017-03-29T05:10:49.710Z,68
2017-03-29T05:11:30.215Z,72
2017-03-29T05:12:10.705Z,80
2017-03-29T05:12:51.218Z,84
2017-03-29T05:13:31.737Z,88
2017-03-29T05:14:12.252Z,96
2017-03-29T05:14:52.759Z,100
2017-03-29T05:15:33.269Z,108
2017-03-29T05:16:13.775Z,112
2017-03-29T05:16:54.282Z,120
2017-03-29T05:17:34.778Z,124
2017-03-29T05:18:15.292Z,136
2017-03-29T05:18:55.799Z,140
2017-03-29T05:19:36.324Z,148
2017-03-29T05:20:16.841Z,156
2017-03-29T05:20:57.360Z,164
2017-03-29T05:21:37.882Z,168
2017-03-29T05:22:18.412Z,180
2017-03-29T05:22:58.931Z,188
2017-03-29T05:23:39.465Z,200
2017-03-29T05:24:19.971Z,208
2017-03-29T05:25:00.484Z,220
2017-03-29T05:25:40.990Z,228
2017-03-29T05:26:21.525Z,236
2017-03-29T05:27:02.046Z,244
2017-03-29T05:27:42.568Z,252
2017-03-29T05:28:23.073Z,260
2017-03-29T05:29:03.588Z,264
2017-03-29T05:29:44.469Z,272
2017-03-29T05:30:25.382Z,276
2017-03-29T05:31:06.130Z,288
2017-03-29T05:31:47.144Z,300
2017-03-29T05:32:27.798Z,312
2017-03-29T05:33:08.739Z,324
2017-03-29T05:33:49.384Z,340
2017-03-29T05:34:30.467Z,352
2017-03-29T05:35:11.454Z,356
2017-03-29T05:35:52.479Z,368
2017-03-29T05:36:33.419Z,372
2017-03-29T05:37:14.318Z,376
2017-03-29T05:37:55.357Z,384
2017-03-29T05:38:36.322Z,392
2017-03-29T05:39:17.330Z,396
2017-03-29T05:39:58.242Z,408
2017-03-29T05:40:39.075Z,420
2017-03-29T05:41:19.853Z,432
2017-03-29T05:42:00.576Z,444
2017-03-29T05:42:41.534Z,456
2017-03-29T05:43:22.589Z,472
2017-03-29T05:44:03.364Z,492
2017-03-29T05:44:44.104Z,520
2017-03-29T05:45:25.053Z,544
2017-03-29T05:46:06.057Z,564
2017-03-29T05:46:46.929Z,584
2017-03-29T05:47:27.492Z,608
2017-03-29T05:48:08.000Z,628
2017-03-29T05:48:48.517Z,648
2017-03-29T05:49:29.036Z,668
2017-03-29T05:50:09.591Z,688
2017-03-29T05:50:50.355Z,716
2017-03-29T05:51:30.950Z,736
2017-03-29T05:52:11.465Z,764
2017-03-29T05:52:51.984Z,788
2017-03-29T05:53:32.557Z,796
2017-03-29T05:54:13.081Z,808
2017-03-29T05:54:53.728Z,824
2017-03-29T05:55:34.409Z,840
2017-03-29T05:56:15.006Z,856
2017-03-29T05:56:55.540Z,872
2017-03-29T05:57:36.060Z,888
2017-03-29T05:58:16.927Z,900
2017-03-29T05:58:57.436Z,916
2017-03-29T05:59:37.950Z,928
2017-03-29T06:00:18.437Z,936
2017-03-29T06:00:58.978Z,944
2017-03-29T06:01:39.469Z,948
2017-03-29T06:02:19.987Z,956
2017-03-29T06:03:00.509Z,976
2017-03-29T06:03:41.016Z,1000
2017-03-29T06:04:21.562Z,1008
2017-03-29T06:05:02.081Z,1012
2017-03-29T06:05:42.577Z,1012
2017-03-29T06:06:23.090Z,1020
2017-03-29T06:07:03.578Z,1044
2017-03-29T06:07:44.096Z,1064
2017-03-29T06:08:24.584Z,1076
2017-03-29T06:09:05.096Z,1084
2017-03-29T06:09:45.685Z,1088
2017-03-29T06:10:26.215Z,1092
2017-03-29T06:11:06.792Z,1096
2017-03-29T06:11:47.299Z,1100
2017-03-29T06:12:27.786Z,1096
2017-03-29T06:13:08.319Z,1088
2017-03-29T06:13:48.835Z,1096
2017-03-29T06:14:29.356Z,1116
2017-03-29T06:15:09.863Z,1128
2017-03-29T06:15:50.362Z,1136
2017-03-29T06:16:30.884Z,1148
2017-03-29T06:17:11.406Z,1164
2017-03-29T06:17:51.928Z,1192
2017-03-29T06:18:32.447Z,1220
2017-03-29T06:19:12.982Z,1244
2017-03-29T06:19:53.489Z,1260
2017-03-29T06:20:34.001Z,1268
2017-03-29T06:21:14.550Z,1264
2017-03-29T06:21:55.050Z,1264
2017-03-29T06:22:35.562Z,1260
2017-03-29T06:23:16.057Z,1256
2017-03-29T06:23:56.581Z,1272
2017-03-29T06:24:37.092Z,1296
2017-03-29T06:25:17.604Z,1328
2017-03-29T06:25:58.119Z,1364
2017-03-29T06:26:38.636Z,1376
2017-03-29T06:27:19.152Z,1372
2017-03-29T06:27:59.673Z,1352
2017-03-29T06:28:40.194Z,1344
2017-03-29T06:29:20.705Z,1372
2017-03-29T06:30:01.224Z,1388
2017-03-29T06:30:41.943Z,1412
2017-03-29T06:31:22.462Z,1436
2017-03-29T06:32:02.971Z,1464
2017-03-29T06:32:43.480Z,1472
2017-03-29T06:33:24.007Z,1488
2017-03-29T06:34:04.573Z,1504
2017-03-29T06:34:45.088Z,1516
2017-03-29T06:35:25.623Z,1540
2017-03-29T06:36:06.106Z,1548
2017-03-29T06:36:46.611Z,1552
2017-03-29T06:37:27.135Z,1548
2017-03-29T06:38:07.642Z,1548
2017-03-29T06:38:48.149Z,1548
2017-03-29T06:39:28.670Z,1540
2017-03-29T06:40:09.179Z,1532
2017-03-29T06:40:49.714Z,1528
2017-03-29T06:41:30.200Z,1524
2017-03-29T06:42:10.717Z,1508
2017-03-29T06:42:51.258Z,1504
2017-03-29T06:43:31.806Z,1544
2017-03-29T06:44:12.328Z,1572
2017-03-29T06:44:52.908Z,1600
2017-03-29T06:45:33.581Z,1640
2017-03-29T06:46:14.209Z,1672
2017-03-29T06:46:54.875Z,1712
2017-03-29T06:47:35.486Z,1736
2017-03-29T06:48:16.072Z,1748
2017-03-29T06:48:56.590Z,1764
2017-03-29T06:49:37.104Z,1772
2017-03-29T06:50:17.623Z,1772
2017-03-29T06:50:58.172Z,1768
2017-03-29T06:51:38.697Z,1772
2017-03-29T06:52:19.243Z,1780
2017-03-29T06:52:59.769Z,1784
2017-03-29T06:53:40.524Z,1828
2017-03-29T06:54:21.016Z,1896
2017-03-29T06:55:01.525Z,1920
2017-03-29T06:55:42.015Z,1928
2017-03-29T06:56:22.521Z,1932
2017-03-29T06:57:03.036Z,1952
2017-03-29T06:57:43.556Z,1956
2017-03-29T06:58:24.062Z,2028
2017-03-29T06:59:04.582Z,2052
2017-03-29T06:59:45.116Z,2084
2017-03-29T07:00:25.634Z,2120
2017-03-29T07:01:06.167Z,2148
2017-03-29T07:01:46.684Z,2168
2017-03-29T07:02:27.232Z,2180
2017-03-29T07:03:07.749Z,2192
2017-03-29T07:03:48.296Z,2204
2017-03-29T07:04:28.836Z,2212
2017-03-29T07:05:09.380Z,2212
2017-03-29T07:05:49.868Z,2216
2017-03-29T07:06:30.394Z,2200
2017-03-29T07:07:10.892Z,2180
2017-03-29T07:07:51.421Z,2164
2017-03-29T07:08:31.950Z,2140
2017-03-29T07:09:12.479Z,2112
2017-03-29T07:09:52.983Z,2084
2017-03-29T07:10:33.495Z,2052
2017-03-29T07:11:14.030Z,2040
2017-03-29T07:11:54.539Z,2028
2017-03-29T07:12:35.058Z,2068
2017-03-29T07:13:15.570Z,2136
2017-03-29T07:13:56.076Z,2200
2017-03-29T07:14:36.617Z,2276
2017-03-29T07:15:17.126Z,2304
2017-03-29T07:15:57.659Z,2324
2017-03-29T07:16:38.180Z,2332
2017-03-29T07:17:18.695Z,2336
2017-03-29T07:17:59.203Z,2340
2017-03-29T07:18:39.723Z,2344
2017-03-29T07:19:20.258Z,2340
2017-03-29T07:20:00.769Z,2336
2017-03-29T07:20:41.261Z,2340
2017-03-29T07:21:21.799Z,2356
2017-03-29T07:22:02.323Z,2360
2017-03-29T07:22:42.832Z,2356
2017-03-29T07:23:23.354Z,2352
2017-03-29T07:24:03.854Z,2348
2017-03-29T07:24:44.382Z,2352
2017-03-29T07:25:24.881Z,2368
2017-03-29T07:26:05.397Z,2388
2017-03-29T07:26:45.928Z,2400
2017-03-29T07:27:26.454Z,2408
2017-03-29T07:28:06.958Z,2428
2017-03-29T07:28:47.477Z,2440
2017-03-29T07:29:28.003Z,2452
2017-03-29T07:30:08.495Z,2456
2017-03-29T07:30:49.044Z,2460
2017-03-29T07:31:29.584Z,2468
2017-03-29T07:32:10.131Z,2476
2017-03-29T07:32:50.652Z,2484
2017-03-29T07:33:31.177Z,2516
2017-03-29T07:34:11.700Z,2564
2017-03-29T07:34:52.231Z,2616
2017-03-29T07:35:32.758Z,2704
2017-03-29T07:36:13.276Z,2768
2017-03-29T07:36:53.799Z,2792
2017-03-29T07:37:34.322Z,2840
2017-03-29T07:38:14.827Z,2844
2017-03-29T07:38:55.338Z,2924
2017-03-29T07:39:35.847Z,3080
2017-03-29T07:40:16.359Z,3320
2017-03-29T07:40:56.889Z,3620
2017-03-29T07:41:37.406Z,3944
2017-03-29T07:42:17.923Z,4236
2017-03-29T07:42:58.423Z,4528
2017-03-29T07:43:38.944Z,4892
2017-03-29T07:44:19.463Z,5328
2017-03-29T07:44:59.978Z,5744
2017-03-29T07:45:40.497Z,6040
2017-03-29T07:46:21.038Z,6420
2017-03-29T07:47:01.534Z,6800
2017-03-29T07:47:42.048Z,7080
2017-03-29T07:48:22.579Z,7140
2017-03-29T07:49:03.093Z,6812
2017-03-29T07:49:43.623Z,6244
2017-03-29T07:50:24.128Z,5864
2017-03-29T07:51:04.658Z,5548
2017-03-29T07:51:45.186Z,5348
2017-03-29T07:52:25.696Z,5436
2017-03-29T07:53:06.211Z,5764
2017-03-29T07:53:46.732Z,5932
2017-03-29T07:54:27.246Z,6216
2017-03-29T07:55:07.762Z,6556
2017-03-29T07:55:48.288Z,6528
2017-03-29T07:56:28.828Z,6180
2017-03-29T07:57:09.347Z,5700
2017-03-29T07:57:49.866Z,5400
2017-03-29T07:58:30.393Z,5416
2017-03-29T07:59:10.931Z,5816
2017-03-29T07:59:51.441Z,6156
2017-03-29T08:00:31.994Z,6108
2017-03-29T08:01:12.498Z,6068
2017-03-29T08:01:53.025Z,5808
2017-03-29T08:02:33.551Z,5332
2017-03-29T08:03:14.050Z,4740
2017-03-29T08:03:54.578Z,4492
2017-03-29T08:04:35.091Z,4120
2017-03-29T08:05:15.599Z,4160
2017-03-29T08:05:56.117Z,3988
2017-03-29T08:06:36.633Z,3744
2017-03-29T08:07:17.161Z,3580
2017-03-29T08:07:57.660Z,3420
2017-03-29T08:08:38.171Z,3436
2017-03-29T08:09:18.686Z,3332
2017-03-29T08:09:59.228Z,3312
2017-03-29T08:10:39.750Z,3476
2017-03-29T08:11:20.262Z,3608
2017-03-29T08:12:00.779Z,4404
2017-03-29T08:12:41.303Z,12192
2017-03-29T08:13:21.806Z,17824
2017-03-29T08:14:02.333Z,14572
2017-03-29T08:14:42.850Z,5584
2017-03-29T08:15:23.392Z,4196
2017-03-29T08:16:03.916Z,4524
2017-03-29T08:16:44.434Z,4052
2017-03-29T08:17:24.949Z,4180
2017-03-29T08:18:05.484Z,4376
2017-03-29T08:18:45.994Z,4616
2017-03-29T08:19:26.531Z,4972
2017-03-29T08:20:07.052Z,5384
2017-03-29T08:20:47.582Z,5896
2017-03-29T08:21:28.092Z,6756
2017-03-29T08:22:08.602Z,7736
2017-03-29T08:22:49.110Z,11864
2017-03-29T08:23:29.636Z,13728
2017-03-29T08:24:10.155Z,11392
2017-03-29T08:24:50.681Z,10680
2017-03-29T08:25:31.186Z,9888
2017-03-29T08:26:11.703Z,9288
2017-03-29T08:26:52.204Z,9408
2017-03-29T08:27:32.717Z,9064
2017-03-29T08:28:13.260Z,8692
2017-03-29T08:28:53.784Z,8416
2017-03-29T08:29:34.312Z,8116
2017-03-29T08:30:14.843Z,8384
2017-03-29T08:30:55.374Z,8796
2017-03-29T08:31:35.905Z,9500
2017-03-29T08:32:16.438Z,9440
2017-03-29T08:32:56.963Z,9456
2017-03-29T08:33:37.495Z,9024
2017-03-29T08:34:18.012Z,8572
2017-03-29T08:34:58.538Z,7828
2017-03-29T08:35:39.056Z,7604
2017-03-29T08:36:19.572Z,7096
2017-03-29T08:37:00.097Z,6396
2017-03-29T08:37:40.615Z,5860
2017-03-29T08:38:21.134Z,5344
2017-03-29T08:39:01.674Z,5212
2017-03-29T08:39:42.195Z,5564
2017-03-29T08:40:22.720Z,6292
2017-03-29T08:41:03.244Z,6664
2017-03-29T08:41:43.759Z,7240
2017-03-29T08:42:24.286Z,8676
2017-03-29T08:43:04.815Z,16056
2017-03-29T08:43:45.333Z,26816
2017-03-29T08:44:25.857Z,25120
2017-03-29T08:45:06.367Z,16528
2017-03-29T08:45:46.886Z,11044
2017-03-29T08:46:27.421Z,11016
2017-03-29T08:47:07.940Z,11688
2017-03-29T08:47:48.445Z,12508
2017-03-29T08:48:28.989Z,12852
2017-03-29T08:49:09.513Z,12960
2017-03-29T08:49:50.045Z,13048
2017-03-29T08:50:30.560Z,13040
2017-03-29T08:51:11.077Z,13696
2017-03-29T08:51:51.605Z,14256
2017-03-29T08:52:32.109Z,14856
2017-03-29T08:53:12.639Z,14512
2017-03-29T08:53:53.162Z,13308
2017-03-29T08:54:33.699Z,13636
2017-03-29T08:55:14.232Z,16552
2017-03-29T08:55:54.774Z,14668
2017-03-29T08:56:35.301Z,19904
2017-03-29T08:57:15.826Z,16672
2017-03-29T08:57:56.346Z,14184
2017-03-29T08:58:36.866Z,12728
2017-03-29T08:59:17.386Z,12676
2017-03-29T08:59:57.923Z,14320
2017-03-29T09:00:38.507Z,13776
2017-03-29T09:01:19.024Z,14208
2017-03-29T09:01:59.549Z,14604
2017-03-29T09:02:40.048Z,17696
2017-03-29T09:03:20.593Z,15464
2017-03-29T09:04:01.108Z,16564
2017-03-29T09:04:41.625Z,19392
2017-03-29T09:05:22.144Z,19968
2017-03-29T09:06:02.672Z,15228
2017-03-29T09:06:43.262Z,11044
2017-03-29T09:07:23.806Z,14224
2017-03-29T09:08:04.314Z,11840
2017-03-29T09:08:44.814Z,10496
2017-03-29T09:09:25.319Z,10124
2017-03-29T09:10:05.821Z,10936
2017-03-29T09:10:46.352Z,11388
2017-03-29T09:11:26.871Z,10672
2017-03-29T09:12:07.374Z,10424
2017-03-29T09:12:47.907Z,11668
2017-03-29T09:13:28.430Z,10428
2017-03-29T09:14:08.950Z,9732
2017-03-29T09:14:49.499Z,9688
2017-03-29T09:15:29.999Z,8848
2017-03-29T09:16:10.517Z,8556
2017-03-29T09:16:51.049Z,8712
2017-03-29T09:17:31.562Z,9056
2017-03-29T09:18:12.104Z,9016
2017-03-29T09:18:52.610Z,8860
2017-03-29T09:19:33.134Z,9284
2017-03-29T09:20:13.650Z,9112
2017-03-29T09:20:54.171Z,8876
2017-03-29T09:21:34.701Z,8988
2017-03-29T09:22:15.199Z,8760
2017-03-29T09:22:55.760Z,8304
2017-03-29T09:23:36.295Z,7356
2017-03-29T09:24:16.810Z,7328
2017-03-29T09:24:57.331Z,8324
2017-03-29T09:25:37.861Z,8572
2017-03-29T09:26:18.396Z,8080
2017-03-29T09:26:58.928Z,8764
2017-03-29T09:27:39.459Z,9252
2017-03-29T09:28:19.987Z,9140
2017-03-29T09:29:00.484Z,9304
2017-03-29T09:29:41.014Z,9924
2017-03-29T09:30:21.556Z,10540